createdAt,value
2023-02-04T12:47:34.640Z,14.77
2023-02-04T12:48:58.275Z,14.25
2023-02-04T12:50:22.621Z,13.00
2023-02-04T12:51:45.457Z,13.27
2023-02-04T13:01:17.723Z,6.77
2023-02-04T13:02:40.620Z,5.90
2023-02-04T13:04:03.372Z,4.85
2023-02-04T13:05:26.824Z,5.35
2023-02-04T13:06:49.693Z,4.32
2023-02-04T13:08:12.908Z,3.72
2023-02-04T13:09:36.116Z,4.00
2023-02-04T13:10:59.253Z,4.35
2023-02-04T13:12:22.145Z,3.67
2023-02-04T13:13:45.337Z,3.97
2023-02-04T13:15:09.311Z,4.47
2023-02-04T13:16:33.552Z,5.13
2023-02-04T13:17:56.452Z,4.97
2023-02-04T13:19:19.281Z,5.20
2023-02-04T13:20:42.346Z,6.65
2023-02-04T13:22:05.193Z,7.65
2023-02-04T13:23:27.998Z,7.03
2023-02-04T13:24:51.978Z,7.40
2023-02-04T13:26:14.990Z,5.63
2023-02-04T13:27:37.911Z,5.32
2023-02-04T13:29:00.871Z,5.10
2023-02-04T13:30:24.025Z,5.00
2023-02-04T13:31:48.280Z,3.90
2023-02-04T13:33:10.226Z,4.13
2023-02-04T13:34:33.074Z,4.03
2023-02-04T13:35:57.369Z,4.00
2023-02-04T13:37:20.193Z,3.72
2023-02-04T13:38:42.071Z,3.30
2023-02-04T13:40:05.067Z,3.38
2023-02-04T13:41:28.107Z,3.22
2023-02-04T13:42:51.322Z,7.18
2023-02-04T13:44:14.601Z,5.70
2023-02-04T13:45:37.410Z,3.58
2023-02-04T13:47:01.581Z,3.20
2023-02-04T13:48:24.623Z,2.95
2023-02-04T13:49:47.700Z,3.22
2023-02-04T13:51:10.517Z,2.78
2023-02-04T13:52:34.531Z,3.08
2023-02-04T13:53:58.284Z,3.55
2023-02-04T13:55:21.302Z,3.33
2023-02-04T13:56:44.154Z,3.17
2023-02-04T13:58:07.139Z,3.92
2023-02-04T13:59:29.885Z,3.83
2023-02-04T14:00:57.251Z,4.05
2023-02-04T14:02:23.777Z,3.05
2023-02-04T14:03:46.986Z,4.68
2023-02-04T14:05:10.152Z,15.40
2023-02-04T14:06:35.157Z,15.50
2023-02-04T14:07:58.080Z,10.07
2023-02-04T14:09:21.601Z,23.33
2023-02-04T14:10:44.342Z,39.33
2023-02-04T14:12:06.782Z,42.20
2023-02-04T14:13:29.611Z,103.32
2023-02-04T14:14:52.808Z,8.45
2023-02-04T14:16:15.572Z,11.27
2023-02-04T14:17:39.735Z,129.40
2023-02-04T14:19:02.885Z,23.35
2023-02-04T14:20:26.002Z,119.03
2023-02-04T14:21:50.136Z,10.57
2023-02-04T14:23:14.052Z,45.47
2023-02-04T14:24:36.957Z,45.22
2023-02-04T14:26:00.204Z,16.58
2023-02-04T14:27:23.053Z,3.75
2023-02-04T14:28:46.323Z,7.97
2023-02-04T14:30:11.749Z,6.38
2023-02-04T14:31:36.528Z,3.58
2023-02-04T14:33:01.447Z,3.55
2023-02-04T14:34:24.533Z,3.78
2023-02-04T14:35:47.743Z,4.55
2023-02-04T14:37:10.637Z,4.18
2023-02-04T14:38:30.797Z,4.43
2023-02-04T14:40:13.702Z,3.65
2023-02-04T14:41:36.579Z,3.75
2023-02-04T14:42:59.284Z,3.50
2023-02-04T14:44:22.112Z,3.95
2023-02-04T14:45:43.859Z,4.95
2023-02-04T14:47:06.731Z,3.20
2023-02-04T14:48:30.804Z,3.83
2023-02-04T14:49:53.666Z,3.50
2023-02-04T14:51:16.383Z,3.20
2023-02-04T14:52:58.638Z,3.80
2023-02-04T14:54:21.802Z,3.60
2023-02-04T14:55:44.628Z,3.25
2023-02-04T14:57:11.208Z,3.33
2023-02-04T14:58:34.120Z,3.95
2023-02-04T14:59:56.991Z,3.40
2023-02-04T15:01:20.487Z,4.00
2023-02-04T15:02:43.542Z,5.63
2023-02-04T15:04:07.905Z,3.78
2023-02-04T15:05:30.632Z,5.80
2023-02-04T15:06:54.086Z,4.53
2023-02-04T15:08:16.961Z,3.83
2023-02-04T15:09:40.084Z,3.58
2023-02-04T15:11:03.120Z,3.65
2023-02-04T15:12:26.173Z,4.10
2023-02-04T15:13:48.921Z,4.07
2023-02-04T15:15:12.230Z,3.92
2023-02-04T15:16:35.362Z,3.95
2023-02-04T15:17:58.269Z,3.47
2023-02-04T15:19:23.668Z,3.72
2023-02-04T15:20:46.629Z,3.45
2023-02-04T15:22:08.405Z,3.85
2023-02-04T15:23:31.251Z,3.42
2023-02-04T15:24:54.147Z,4.55
2023-02-04T15:26:17.120Z,4.38
2023-02-04T15:27:39.874Z,3.67
2023-02-04T15:29:02.864Z,3.88
2023-02-04T15:30:25.729Z,5.50
2023-02-04T15:31:48.906Z,4.75
2023-02-04T15:33:13.075Z,6.30
2023-02-04T15:34:37.339Z,5.88
2023-02-04T15:36:00.116Z,5.43
2023-02-04T15:37:23.011Z,6.18
2023-02-04T15:38:46.091Z,5.05
2023-02-04T15:40:10.475Z,5.10
2023-02-04T15:41:33.356Z,5.18
2023-02-04T15:42:56.998Z,5.25
2023-02-04T15:44:21.462Z,5.32
2023-02-04T15:45:47.303Z,4.97
2023-02-04T15:47:10.106Z,7.05
2023-02-04T15:48:32.984Z,7.30
2023-02-04T15:49:57.182Z,5.82
2023-02-04T15:51:20.312Z,5.53
2023-02-04T15:52:42.394Z,5.75
2023-02-04T15:54:05.564Z,4.43
2023-02-04T15:55:28.580Z,4.72
2023-02-04T15:56:51.745Z,5.32
2023-02-04T15:58:14.739Z,4.60
2023-02-04T15:59:38.130Z,4.75
2023-02-04T16:01:01.331Z,4.60
2023-02-04T16:02:24.242Z,4.65
2023-02-04T16:03:59.683Z,4.28
2023-02-04T16:05:27.493Z,4.30
2023-02-04T16:06:58.046Z,4.63
2023-02-04T16:08:21.536Z,4.40
2023-02-04T16:09:45.106Z,4.95
2023-02-04T16:11:08.491Z,4.82
2023-02-04T16:12:31.317Z,5.43
2023-02-04T16:13:54.147Z,4.80
2023-02-04T16:15:16.926Z,4.90
2023-02-04T16:16:39.994Z,6.05
2023-02-04T16:18:02.788Z,4.70
2023-02-04T16:19:25.648Z,5.53
2023-02-04T16:20:49.771Z,5.47
2023-02-04T16:22:12.981Z,5.22
2023-02-04T16:23:35.928Z,6.07
2023-02-04T16:24:58.967Z,5.18
2023-02-04T16:26:21.821Z,6.10
2023-02-04T16:27:44.868Z,5.90
2023-02-04T16:29:07.852Z,6.28
2023-02-04T16:30:30.944Z,5.78
2023-02-04T16:31:54.132Z,5.50
2023-02-04T16:33:17.161Z,5.63
2023-02-04T16:34:39.965Z,5.40
2023-02-04T16:36:06.421Z,6.03
2023-02-04T16:37:29.441Z,5.25
2023-02-04T16:38:53.056Z,5.20
2023-02-04T16:40:16.059Z,5.93
2023-02-04T16:41:38.947Z,6.05
2023-02-04T16:43:01.740Z,5.13
2023-02-04T16:44:24.657Z,5.20
2023-02-04T16:45:49.961Z,5.20
2023-02-04T16:47:13.070Z,4.75
2023-02-04T16:48:37.265Z,4.88
2023-02-04T16:50:01.267Z,4.70
2023-02-04T16:51:25.858Z,4.68
2023-02-04T16:52:48.851Z,5.00
2023-02-04T16:54:11.670Z,4.53
2023-02-04T16:55:35.273Z,4.93
2023-02-04T16:57:00.151Z,5.10
2023-02-04T16:58:23.919Z,4.38
2023-02-04T16:59:46.702Z,4.85
2023-02-04T17:01:10.103Z,5.45
2023-02-04T17:02:37.321Z,4.65
2023-02-04T17:04:00.524Z,4.78
2023-02-04T17:05:23.380Z,5.40
2023-02-04T17:06:48.301Z,5.53
2023-02-04T17:08:13.449Z,4.97
2023-02-04T17:09:36.998Z,4.68
2023-02-04T17:11:17.751Z,5.65
2023-02-04T17:12:41.281Z,4.95
2023-02-04T17:14:06.296Z,5.10
2023-02-04T17:15:28.286Z,5.32
2023-02-04T17:16:52.050Z,6.28
2023-02-04T17:18:14.023Z,5.38
2023-02-04T17:19:37.855Z,5.60
2023-02-04T17:21:00.343Z,6.18
2023-02-04T17:22:24.692Z,6.00
2023-02-04T17:23:48.254Z,6.35
2023-02-04T17:25:11.213Z,6.25
2023-02-04T17:26:38.043Z,6.22
2023-02-04T17:28:00.113Z,6.38
2023-02-04T17:29:25.109Z,6.82
2023-02-04T17:30:48.022Z,5.75
2023-02-04T17:32:12.429Z,5.70
2023-02-04T17:33:35.821Z,6.40
2023-02-04T17:34:59.333Z,5.82
2023-02-04T17:36:22.196Z,6.47
2023-02-04T17:37:45.500Z,5.97
2023-02-04T17:39:08.425Z,6.28
2023-02-04T17:40:32.400Z,6.80
2023-02-04T17:41:55.319Z,6.32
2023-02-04T17:43:18.414Z,6.32
2023-02-04T17:44:41.179Z,6.68
2023-02-04T17:46:04.568Z,6.85
2023-02-04T17:47:27.513Z,6.00
2023-02-04T17:48:50.557Z,5.72
2023-02-04T17:50:12.689Z,6.00
2023-02-04T17:51:36.678Z,5.85
2023-02-04T17:53:01.318Z,6.43
2023-02-04T17:54:27.348Z,5.97
2023-02-04T17:55:50.398Z,6.47
2023-02-04T17:57:18.671Z,5.82
2023-02-04T17:58:42.316Z,6.07
2023-02-04T18:00:12.833Z,6.20
2023-02-04T18:01:37.226Z,6.55
2023-02-04T18:03:01.184Z,6.30
2023-02-04T18:04:24.153Z,5.10
2023-02-04T18:05:48.294Z,5.90
2023-02-04T18:07:11.136Z,6.25
2023-02-04T18:08:39.427Z,5.97
2023-02-04T18:10:08.615Z,5.35
2023-02-04T18:11:33.248Z,5.50
2023-02-04T18:12:55.810Z,6.25
2023-02-04T18:14:23.344Z,6.03
2023-02-04T18:15:48.303Z,5.00
2023-02-04T18:17:13.427Z,5.15
2023-02-04T18:18:37.419Z,4.68
2023-02-04T18:19:59.587Z,5.43
2023-02-04T18:21:24.792Z,4.22
2023-02-04T18:22:50.190Z,4.93
2023-02-04T18:24:18.603Z,5.25
2023-02-04T18:25:42.231Z,4.65
2023-02-04T18:27:14.402Z,4.30
2023-02-04T18:28:39.496Z,4.80
2023-02-04T18:30:02.583Z,4.32
2023-02-04T18:31:31.084Z,5.22
2023-02-04T18:32:55.516Z,4.60
2023-02-04T18:34:23.703Z,4.50
2023-02-04T18:35:48.191Z,10.18
2023-02-04T18:37:31.661Z,4.53
2023-02-04T18:38:54.556Z,4.55
2023-02-04T18:40:24.946Z,5.22
2023-02-04T18:41:49.846Z,4.72
2023-02-04T18:43:23.426Z,4.78
2023-02-04T18:44:46.693Z,4.70
2023-02-04T18:46:21.258Z,4.88
2023-02-04T18:47:44.011Z,4.10
2023-02-04T18:49:09.112Z,4.32
2023-02-04T18:50:33.896Z,4.57
2023-02-04T18:51:58.056Z,4.82
2023-02-04T18:53:22.899Z,4.93
2023-02-04T18:54:48.828Z,4.40
2023-02-04T18:56:15.920Z,4.45
2023-02-04T18:57:40.054Z,4.45
2023-02-04T18:59:06.476Z,4.97
2023-02-04T19:00:33.429Z,4.82
2023-02-04T19:01:56.414Z,5.45
2023-02-04T19:03:26.237Z,4.97
2023-02-04T19:04:49.020Z,9.13
2023-02-04T19:06:25.756Z,12.25
2023-02-04T19:07:48.529Z,13.68
2023-02-04T19:09:17.583Z,11.65
2023-02-04T19:10:42.161Z,20.63
2023-02-04T19:12:19.522Z,18.60
2023-02-04T19:13:42.783Z,20.55
2023-02-04T19:15:16.669Z,12.90
2023-02-04T19:16:39.690Z,12.80
2023-02-04T19:18:10.602Z,15.05
2023-02-04T19:19:37.151Z,17.30
2023-02-04T19:21:08.478Z,12.52
2023-02-04T19:22:38.867Z,14.00
2023-02-04T19:24:09.869Z,11.90
2023-02-04T19:25:35.533Z,13.88
2023-02-04T19:26:59.655Z,11.63
2023-02-04T19:28:31.607Z,9.32
2023-02-04T19:29:55.206Z,7.78
2023-02-04T19:31:18.190Z,6.35
2023-02-04T19:32:45.336Z,7.85
2023-02-04T19:34:24.577Z,7.32
2023-02-04T19:35:48.136Z,5.07
2023-02-04T19:37:19.859Z,6.95
2023-02-04T19:38:45.332Z,6.38
2023-02-04T19:40:30.296Z,6.68
2023-02-04T19:41:54.102Z,5.80
2023-02-04T19:43:22.557Z,5.40
2023-02-04T19:44:47.993Z,4.70
2023-02-04T19:46:19.480Z,6.68
2023-02-04T19:47:44.174Z,7.03
2023-02-04T19:49:14.706Z,7.00
2023-02-04T19:50:38.019Z,12.40
2023-02-04T19:52:00.913Z,7.13
2023-02-04T19:53:29.887Z,9.75
2023-02-04T19:54:53.113Z,9.65
2023-02-04T19:56:29.624Z,8.95
2023-02-04T19:57:52.561Z,8.57
2023-02-04T19:59:25.504Z,9.40
2023-02-04T20:01:00.670Z,7.47
2023-02-04T20:02:33.531Z,7.55
2023-02-04T20:03:56.337Z,6.30
2023-02-04T20:05:19.834Z,6.70
2023-02-04T20:06:44.475Z,6.68
2023-02-04T20:08:12.276Z,6.43
2023-02-04T20:09:35.481Z,5.57
2023-02-04T20:11:35.231Z,5.47
2023-02-04T20:13:00.605Z,6.68
2023-02-04T20:14:49.217Z,7.40
2023-02-04T20:16:34.515Z,6.03
2023-02-04T20:17:58.939Z,6.35
2023-02-04T20:19:25.724Z,5.25
2023-02-04T20:20:48.569Z,4.93
2023-02-04T20:22:45.564Z,5.63
2023-02-04T20:24:14.945Z,5.47
2023-02-04T20:25:43.605Z,5.30
2023-02-04T20:27:16.503Z,5.43
2023-02-04T20:28:41.116Z,5.88
2023-02-04T20:30:25.545Z,6.85
2023-02-04T20:31:49.940Z,11.73
2023-02-04T20:33:24.756Z,9.50
2023-02-04T20:34:48.151Z,37.78
2023-02-04T20:36:36.381Z,47.40
2023-02-04T20:38:01.368Z,143.30
2023-02-04T20:39:40.723Z,120.95
2023-02-04T20:41:04.539Z,65.32
2023-02-04T20:42:35.265Z,90.07
2023-02-04T20:43:58.100Z,49.03
2023-02-04T20:45:34.107Z,85.43
2023-02-04T20:47:03.667Z,48.28
2023-02-04T20:48:33.042Z,71.97
2023-02-04T20:49:57.251Z,42.78
2023-02-04T20:51:23.500Z,33.90
2023-02-04T20:53:26.164Z,38.95
2023-02-04T20:55:22.750Z,10.48
2023-02-04T20:56:45.885Z,18.67
2023-02-04T20:58:15.470Z,13.40
2023-02-04T20:59:38.380Z,14.38
2023-02-04T21:01:01.358Z,11.50
2023-02-04T21:02:25.638Z,15.68
2023-02-04T21:03:50.190Z,13.02
2023-02-04T21:05:22.132Z,9.20
2023-02-04T21:06:45.245Z,9.32
2023-02-04T21:08:21.933Z,11.02
2023-02-04T21:09:44.743Z,12.95
2023-02-04T21:11:07.888Z,11.65
2023-02-04T21:12:30.917Z,11.10
2023-02-04T21:13:54.835Z,11.93
2023-02-04T21:15:16.625Z,13.80
2023-02-04T21:16:39.457Z,14.98
2023-02-04T21:18:02.676Z,10.85
2023-02-04T21:19:27.739Z,10.20
2023-02-04T21:20:50.536Z,9.85
2023-02-04T21:22:13.307Z,8.50
2023-02-04T21:23:36.838Z,9.57
2023-02-04T21:24:59.643Z,8.23
2023-02-04T21:26:22.508Z,7.60
2023-02-04T21:27:44.442Z,8.85
2023-02-04T21:29:07.887Z,8.23
2023-02-04T21:30:31.141Z,8.52
2023-02-04T21:31:54.684Z,9.15
2023-02-04T21:33:19.131Z,9.20
2023-02-04T21:34:42.240Z,8.63
2023-02-04T21:36:05.545Z,7.50
2023-02-04T21:37:27.379Z,6.55
2023-02-04T21:38:50.189Z,6.68
2023-02-04T21:40:13.130Z,5.50
2023-02-04T21:41:36.008Z,6.72
2023-02-04T21:42:57.840Z,7.57
2023-02-04T21:44:20.812Z,6.55
2023-02-04T21:45:43.660Z,5.70
2023-02-04T21:47:06.770Z,7.85
2023-02-04T21:48:30.940Z,7.50
2023-02-04T21:49:53.057Z,7.13
2023-02-04T21:51:16.907Z,5.03
2023-02-04T21:52:39.175Z,5.35
2023-02-04T21:54:04.473Z,7.82
2023-02-04T21:55:27.101Z,8.70
2023-02-04T21:56:50.253Z,7.28
2023-02-04T21:58:13.551Z,7.30
2023-02-04T21:59:35.761Z,7.15
2023-02-04T22:00:58.704Z,10.07
2023-02-04T22:02:20.598Z,10.80
2023-02-04T22:03:45.076Z,12.32
2023-02-04T22:05:08.307Z,10.98
2023-02-04T22:06:31.208Z,12.07
2023-02-04T22:07:54.485Z,12.80
2023-02-04T22:09:18.115Z,12.25
2023-02-04T22:10:39.884Z,9.85
2023-02-04T22:12:04.304Z,16.23
2023-02-04T22:13:27.336Z,13.52
2023-02-04T22:15:08.611Z,10.05
2023-02-04T22:16:31.712Z,11.18
2023-02-04T22:17:54.427Z,15.32
2023-02-04T22:19:19.866Z,10.63
2023-02-04T22:20:42.701Z,8.38
2023-02-04T22:22:23.972Z,10.20
2023-02-04T22:23:46.838Z,7.63
2023-02-04T22:25:08.958Z,11.45
2023-02-04T22:26:31.826Z,10.77
2023-02-04T22:27:54.669Z,9.68
2023-02-04T22:29:21.591Z,10.35
2023-02-04T22:30:44.462Z,9.00
2023-02-04T22:32:25.829Z,7.38
2023-02-04T22:33:48.919Z,9.38
2023-02-04T22:35:13.513Z,5.18
2023-02-04T22:36:36.351Z,6.22
2023-02-04T22:38:01.935Z,4.90
2023-02-04T22:39:25.089Z,4.55
2023-02-04T22:40:48.873Z,3.58
2023-02-04T22:42:12.120Z,3.85
2023-02-04T22:43:35.038Z,4.88
2023-02-04T22:44:58.219Z,4.13
2023-02-04T22:46:23.423Z,4.40
2023-02-04T22:47:46.668Z,4.72
2023-02-04T22:49:08.446Z,5.07
2023-02-04T22:50:32.793Z,4.43
2023-02-04T22:51:54.620Z,4.65
2023-02-04T22:53:17.566Z,4.03
2023-02-04T22:54:40.468Z,4.35
2023-02-04T22:56:03.507Z,5.30
2023-02-04T22:57:26.386Z,5.75
2023-02-04T22:58:49.317Z,5.45
2023-02-04T23:00:14.001Z,6.00
2023-02-04T23:01:36.833Z,5.20
2023-02-04T23:02:59.611Z,5.43
2023-02-04T23:04:43.812Z,4.72
2023-02-04T23:06:08.423Z,4.65
2023-02-04T23:07:32.099Z,5.13
2023-02-04T23:08:55.300Z,4.05
2023-02-04T23:10:18.344Z,4.57
2023-02-04T23:11:40.112Z,4.50
2023-02-04T23:13:21.534Z,6.47
2023-02-04T23:14:45.341Z,8.43
2023-02-04T23:16:08.604Z,15.75
2023-02-04T23:17:31.435Z,9.27
2023-02-04T23:18:54.286Z,8.23
2023-02-04T23:20:18.181Z,6.97
2023-02-04T23:21:42.899Z,7.53
2023-02-04T23:23:06.404Z,7.18
2023-02-04T23:24:29.798Z,6.93
2023-02-04T23:25:53.060Z,7.25
2023-02-04T23:27:16.474Z,7.60
2023-02-04T23:28:38.316Z,8.50
2023-02-04T23:30:01.152Z,9.00
2023-02-04T23:31:24.845Z,9.23
2023-02-04T23:32:47.678Z,8.88
2023-02-04T23:34:10.464Z,11.25
2023-02-04T23:35:33.690Z,12.07
2023-02-04T23:36:58.268Z,11.35
2023-02-04T23:38:20.062Z,11.65
2023-02-04T23:39:43.179Z,14.77
2023-02-04T23:41:05.297Z,13.07
2023-02-04T23:42:28.281Z,14.23
2023-02-04T23:43:53.208Z,12.27
2023-02-04T23:45:15.892Z,9.25
2023-02-04T23:46:38.701Z,9.38
2023-02-04T23:48:01.496Z,8.57
2023-02-04T23:49:24.549Z,8.43
2023-02-04T23:50:47.268Z,8.50
2023-02-04T23:52:11.365Z,8.43
2023-02-04T23:53:34.190Z,7.80
2023-02-04T23:54:57.397Z,6.55
2023-02-04T23:56:20.194Z,9.02
2023-02-04T23:57:43.473Z,8.80
2023-02-04T23:59:06.658Z,7.93
